createdAt,value
2018-02-21T00:00:18.582Z,0.62
2018-02-21T00:02:11.594Z,0.63
2018-02-21T00:03:11.636Z,0.68
2018-02-21T00:05:04.627Z,0.62
2018-02-21T00:06:04.662Z,0.62
2018-02-21T00:07:57.663Z,0.58
2018-02-21T00:08:57.707Z,0.62
2018-02-21T00:10:50.659Z,0.55
2018-02-21T00:11:50.701Z,0.52
2018-02-21T00:13:43.695Z,0.55
2018-02-21T00:14:43.789Z,0.52
2018-02-21T00:16:36.689Z,0.55
2018-02-21T00:17:36.737Z,0.50
2018-02-21T00:19:29.756Z,0.56
2018-02-21T00:20:29.851Z,0.47
2018-02-21T00:22:22.759Z,0.50
2018-02-21T00:23:22.853Z,0.52
2018-02-21T00:25:15.836Z,0.52
2018-02-21T00:26:15.964Z,0.56
2018-02-21T00:28:09.377Z,0.47
2018-02-21T00:29:09.412Z,0.46
2018-02-21T00:31:02.365Z,0.41
2018-02-21T00:32:02.425Z,0.41
2018-02-21T00:33:55.426Z,0.41
2018-02-21T00:34:55.422Z,0.29
2018-02-21T00:36:48.429Z,0.32
2018-02-21T00:37:48.731Z,0.34
2018-02-21T00:39:41.454Z,0.22
2018-02-21T00:40:41.511Z,0.23
2018-02-21T00:42:34.427Z,0.34
2018-02-21T00:43:34.501Z,0.22
2018-02-21T00:45:27.516Z,0.31
2018-02-21T00:46:27.511Z,0.31
2018-02-21T00:48:20.506Z,0.31
2018-02-21T00:49:20.597Z,0.36
2018-02-21T00:51:13.556Z,0.19
2018-02-21T00:52:13.624Z,0.23
2018-02-21T00:54:06.536Z,0.23
2018-02-21T00:55:06.645Z,0.22
2018-02-21T00:56:59.704Z,0.23
2018-02-21T00:57:59.604Z,0.12
2018-02-21T00:59:52.650Z,0.25
2018-02-21T01:00:52.671Z,0.22
2018-02-21T01:02:45.755Z,0.16
2018-02-21T01:03:45.672Z,0.11
2018-02-21T01:05:38.753Z,0.16
2018-02-21T01:06:38.808Z,0.19
2018-02-21T01:08:31.745Z,0.12
2018-02-21T01:09:31.714Z,0.07
2018-02-21T01:11:24.708Z,0.18
2018-02-21T01:12:24.757Z,0.15
2018-02-21T01:14:17.760Z,0.01
2018-02-21T01:15:17.778Z,0.01
2018-02-21T01:17:10.787Z,0.01
2018-02-21T01:18:10.838Z,-0.07
2018-02-21T01:20:03.754Z,0.00
2018-02-21T01:21:03.824Z,-0.06
2018-02-21T01:22:56.825Z,-0.03
2018-02-21T01:23:56.846Z,-0.17
2018-02-21T01:25:49.827Z,-0.11
2018-02-21T01:26:49.886Z,-0.13
2018-02-21T01:28:43.392Z,-0.10
2018-02-21T01:29:43.420Z,-0.13
2018-02-21T01:31:36.448Z,-0.13
2018-02-21T01:32:36.478Z,-0.15
2018-02-21T01:34:29.415Z,-0.14
2018-02-21T01:35:29.444Z,-0.17
2018-02-21T01:37:22.432Z,-0.21
2018-02-21T01:38:22.446Z,-0.25
2018-02-21T01:40:15.434Z,-0.20
2018-02-21T01:41:15.494Z,-0.23
2018-02-21T01:43:08.473Z,-0.20
2018-02-21T01:44:08.532Z,-0.23
2018-02-21T01:46:01.510Z,-0.20
2018-02-21T01:47:01.573Z,-0.25
2018-02-21T01:48:54.596Z,-0.21
2018-02-21T01:49:54.638Z,-0.13
2018-02-21T01:51:47.567Z,-0.13
2018-02-21T01:52:47.620Z,-0.26
2018-02-21T01:54:40.593Z,-0.20
2018-02-21T01:55:40.727Z,-0.23
2018-02-21T01:57:33.733Z,-0.23
2018-02-21T01:58:33.687Z,-0.21
2018-02-21T02:00:26.757Z,-0.14
2018-02-21T02:01:26.905Z,-0.35
2018-02-21T02:03:19.687Z,-0.34
2018-02-21T02:04:19.802Z,-0.26
2018-02-21T02:06:12.702Z,-0.34
2018-02-21T02:07:12.717Z,-0.32
2018-02-21T02:09:05.902Z,-0.29
2018-02-21T02:10:05.734Z,-0.38
2018-02-21T02:11:58.741Z,-0.32
2018-02-21T02:12:58.760Z,-0.29
2018-02-21T02:14:51.772Z,-0.29
2018-02-21T02:15:51.833Z,-0.32
2018-02-21T02:17:44.760Z,-0.32
2018-02-21T02:18:44.812Z,-0.32
2018-02-21T02:20:37.827Z,-0.31
2018-02-21T02:21:37.847Z,-0.29
2018-02-21T02:23:30.851Z,-0.21
2018-02-21T02:24:30.875Z,-0.32
2018-02-21T02:26:23.955Z,-0.28
2018-02-21T02:27:23.911Z,-0.21
2018-02-21T02:29:16.980Z,-0.32
2018-02-21T02:30:16.930Z,-0.21
2018-02-21T02:32:09.939Z,-0.21
2018-02-21T02:33:09.952Z,-0.29
2018-02-21T02:35:03.000Z,-0.29
2018-02-21T02:36:02.969Z,-0.32
2018-02-21T02:37:56.059Z,-0.32
2018-02-21T02:38:55.954Z,-0.31
2018-02-21T02:40:49.006Z,-0.35
2018-02-21T02:41:48.976Z,-0.28
2018-02-21T02:43:42.030Z,-0.21
2018-02-21T02:44:42.016Z,-0.25
2018-02-21T02:46:35.014Z,-0.20
2018-02-21T02:47:35.033Z,-0.21
2018-02-21T02:49:28.008Z,-0.08
2018-02-21T02:50:28.073Z,-0.14
2018-02-21T02:52:21.069Z,-0.08
2018-02-21T02:53:21.100Z,0.00
2018-02-21T02:55:14.130Z,-0.02
2018-02-21T02:56:14.135Z,-0.08
2018-02-21T02:58:07.100Z,-0.06
2018-02-21T02:59:07.184Z,-0.06
2018-02-21T03:01:00.260Z,-0.02
2018-02-21T03:02:00.212Z,-0.08
2018-02-21T03:03:53.197Z,-0.02
2018-02-21T03:04:53.241Z,-0.03
2018-02-21T03:06:46.161Z,0.01
2018-02-21T03:07:46.256Z,-0.03
2018-02-21T03:09:39.216Z,-0.02
2018-02-21T03:10:39.250Z,-0.06
2018-02-21T03:12:32.219Z,-0.07
2018-02-21T03:13:32.266Z,-0.06
2018-02-21T03:15:25.284Z,-0.06
2018-02-21T03:16:25.324Z,-0.15
2018-02-21T03:18:18.287Z,-0.07
2018-02-21T03:19:18.299Z,-0.15
2018-02-21T03:21:11.268Z,-0.21
2018-02-21T03:22:11.313Z,-0.13
2018-02-21T03:24:04.359Z,-0.15
2018-02-21T03:25:04.388Z,-0.13
2018-02-21T03:26:57.347Z,-0.15
2018-02-21T03:27:57.365Z,-0.17
2018-02-21T03:29:50.495Z,-0.25
2018-02-21T03:30:50.433Z,-0.23
2018-02-21T03:32:43.466Z,-0.21
2018-02-21T03:33:43.526Z,-0.25
2018-02-21T03:35:36.490Z,-0.18
2018-02-21T03:36:36.485Z,-0.35
2018-02-21T03:38:29.525Z,-0.36
2018-02-21T03:39:29.498Z,-0.25
2018-02-21T03:41:22.538Z,-0.35
2018-02-21T03:42:22.545Z,-0.25
2018-02-21T03:44:15.547Z,-0.34
2018-02-21T03:45:15.526Z,-0.29
2018-02-21T03:47:08.560Z,-0.25
2018-02-21T03:48:08.590Z,-0.35
2018-02-21T03:50:01.586Z,-0.44
2018-02-21T03:51:01.673Z,-0.35
2018-02-21T03:52:54.583Z,-0.29
2018-02-21T03:53:54.647Z,-0.31
2018-02-21T03:55:47.686Z,-0.32
2018-02-21T03:56:47.670Z,-0.32
2018-02-21T03:58:40.657Z,-0.28
2018-02-21T03:59:40.745Z,-0.29
2018-02-21T04:01:33.653Z,-0.41
2018-02-21T04:02:33.781Z,-0.29
2018-02-21T04:04:26.732Z,-0.38
2018-02-21T04:05:26.813Z,-0.34
2018-02-21T04:07:19.700Z,-0.46
2018-02-21T04:08:19.758Z,-0.43
2018-02-21T04:10:12.785Z,-0.41
2018-02-21T04:11:12.826Z,-0.43
2018-02-21T04:13:05.791Z,-0.43
2018-02-21T04:14:05.838Z,-0.44
2018-02-21T04:15:58.854Z,-0.44
2018-02-21T04:16:58.902Z,-0.49
2018-02-21T04:18:51.874Z,-0.47
2018-02-21T04:19:51.947Z,-0.47
2018-02-21T04:21:44.897Z,-0.50
2018-02-21T04:22:44.929Z,-0.46
2018-02-21T04:24:37.914Z,-0.49
2018-02-21T04:25:37.946Z,-0.50
2018-02-21T04:27:30.970Z,-0.46
2018-02-21T04:28:31.028Z,-0.56
2018-02-21T04:30:24.155Z,-0.41
2018-02-21T04:31:24.045Z,-0.47
2018-02-21T04:33:16.986Z,-0.52
2018-02-21T04:34:17.069Z,-0.53
2018-02-21T04:36:10.079Z,-0.56
2018-02-21T04:37:10.321Z,-0.52
2018-02-21T04:39:03.169Z,-0.57
2018-02-21T04:40:03.128Z,-0.54
2018-02-21T04:41:56.186Z,-0.65
2018-02-21T04:42:56.147Z,-0.62
2018-02-21T04:44:49.229Z,-0.61
2018-02-21T04:45:49.151Z,-0.64
2018-02-21T04:47:42.113Z,-0.74
2018-02-21T04:48:42.164Z,-0.74
2018-02-21T04:50:35.184Z,-0.77
2018-02-21T04:51:35.194Z,-0.77
2018-02-21T04:53:28.171Z,-0.70
2018-02-21T04:54:28.208Z,-0.71
2018-02-21T04:56:21.228Z,-0.71
2018-02-21T04:57:21.232Z,-0.68
2018-02-21T04:59:14.202Z,-0.77
2018-02-21T05:00:14.255Z,-0.68
2018-02-21T05:02:07.247Z,-0.82
2018-02-21T05:03:07.278Z,-0.82
2018-02-21T05:05:00.252Z,-0.78
2018-02-21T05:06:00.303Z,-0.85
2018-02-21T05:07:53.294Z,-0.85
2018-02-21T05:08:53.330Z,-0.90
2018-02-21T05:10:46.300Z,-0.82
2018-02-21T05:11:46.344Z,-0.80
2018-02-21T05:13:39.341Z,-0.83
2018-02-21T05:14:39.373Z,-0.82
2018-02-21T05:16:32.382Z,-0.90
2018-02-21T05:17:32.399Z,-0.82
2018-02-21T05:19:25.366Z,-0.91
2018-02-21T05:20:25.433Z,-0.96
2018-02-21T05:22:18.436Z,-0.85
2018-02-21T05:23:18.438Z,-0.86
2018-02-21T05:25:11.416Z,-0.83
2018-02-21T05:26:11.460Z,-0.89
2018-02-21T05:28:04.469Z,-0.91
2018-02-21T05:29:04.485Z,-0.99
2018-02-21T05:30:57.453Z,-0.99
2018-02-21T05:31:57.512Z,-0.97
2018-02-21T05:33:50.503Z,-1.02
2018-02-21T05:34:50.527Z,-0.96
2018-02-21T05:36:44.007Z,-1.12
2018-02-21T05:37:44.056Z,-1.04
2018-02-21T05:39:37.053Z,-1.04
2018-02-21T05:40:37.075Z,-1.04
2018-02-21T05:42:30.068Z,-1.09
2018-02-21T05:43:30.101Z,-1.14
2018-02-21T05:45:23.078Z,-1.15
2018-02-21T05:46:23.129Z,-0.94
2018-02-21T05:48:16.113Z,-1.05
2018-02-21T05:49:16.142Z,-0.99
2018-02-21T05:51:09.119Z,-1.05
2018-02-21T05:52:09.170Z,-1.02
2018-02-21T05:54:02.187Z,-1.01
2018-02-21T05:55:02.197Z,-0.93
2018-02-21T05:56:55.166Z,-0.91
2018-02-21T05:57:55.216Z,-0.93
2018-02-21T05:59:48.243Z,-0.91
2018-02-21T06:00:48.237Z,-0.86
2018-02-21T06:02:41.215Z,-0.97
2018-02-21T06:03:41.266Z,-0.86
2018-02-21T06:05:34.263Z,-0.96
2018-02-21T06:06:34.285Z,-0.85
2018-02-21T06:08:27.259Z,-0.82
2018-02-21T06:09:27.314Z,-0.85
2018-02-21T06:11:20.318Z,-0.90
2018-02-21T06:12:20.350Z,-0.93
2018-02-21T06:14:13.354Z,-0.78
2018-02-21T06:15:13.371Z,-0.83
2018-02-21T06:17:06.341Z,-0.74
2018-02-21T06:18:06.391Z,-0.78
2018-02-21T06:19:59.382Z,-0.83
2018-02-21T06:20:59.413Z,-0.75
2018-02-21T06:22:52.382Z,-0.77
2018-02-21T06:23:52.434Z,-0.85
2018-02-21T06:25:45.428Z,-0.78
2018-02-21T06:26:45.452Z,-0.91
2018-02-21T06:28:38.426Z,-0.85
2018-02-21T06:29:38.478Z,-0.72
2018-02-21T06:31:31.469Z,-0.78
2018-02-21T06:32:31.498Z,-0.77
2018-02-21T06:34:24.492Z,-0.78
2018-02-21T06:35:24.546Z,-0.77
2018-02-21T06:37:18.046Z,-0.83
2018-02-21T06:38:18.072Z,-0.75
2018-02-21T06:40:11.067Z,-0.71
2018-02-21T06:41:11.097Z,-0.75
2018-02-21T06:43:04.064Z,-0.65
2018-02-21T06:44:04.130Z,-0.80
2018-02-21T06:45:57.109Z,-0.80
2018-02-21T06:46:57.141Z,-0.65
2018-02-21T06:48:50.118Z,-0.82
2018-02-21T06:49:50.162Z,-0.70
2018-02-21T06:51:43.162Z,-0.82
2018-02-21T06:52:43.181Z,-0.78
2018-02-21T06:54:36.155Z,-0.80
2018-02-21T06:55:36.203Z,-0.74
2018-02-21T06:57:29.193Z,-0.78
2018-02-21T06:58:29.227Z,-0.83
2018-02-21T07:00:22.195Z,-0.78
2018-02-21T07:01:22.245Z,-0.75
2018-02-21T07:03:15.241Z,-0.90
2018-02-21T07:04:15.269Z,-0.78
2018-02-21T07:06:08.250Z,-0.77
2018-02-21T07:07:08.288Z,-0.74
2018-02-21T07:09:01.278Z,-0.77
2018-02-21T07:10:01.321Z,-0.75
2018-02-21T07:11:54.308Z,-0.68
2018-02-21T07:12:54.342Z,-0.74
2018-02-21T07:14:47.307Z,-0.64
2018-02-21T07:15:47.354Z,-0.61
2018-02-21T07:17:40.353Z,-0.61
2018-02-21T07:18:40.382Z,-0.61
2018-02-21T07:20:33.353Z,-0.62
2018-02-21T07:21:33.419Z,-0.59
2018-02-21T07:23:26.398Z,-0.52
2018-02-21T07:24:26.429Z,-0.53
2018-02-21T07:26:19.399Z,-0.47
2018-02-21T07:27:19.449Z,-0.46
2018-02-21T07:29:12.466Z,-0.44
2018-02-21T07:30:12.475Z,-0.41
2018-02-21T07:32:05.446Z,-0.41
2018-02-21T07:33:05.498Z,-0.39
2018-02-21T07:34:58.489Z,-0.41
2018-02-21T07:35:58.520Z,-0.43
2018-02-21T07:37:51.492Z,-0.35
2018-02-21T07:38:51.547Z,-0.32
2018-02-21T07:40:44.536Z,-0.31
2018-02-21T07:41:44.563Z,-0.28
2018-02-21T07:43:37.565Z,-0.25
2018-02-21T07:44:37.594Z,-0.23
2018-02-21T07:46:30.567Z,-0.10
2018-02-21T07:47:30.621Z,-0.02
2018-02-21T07:49:23.606Z,-0.02
2018-02-21T07:50:23.642Z,0.05
2018-02-21T07:52:16.611Z,0.21
2018-02-21T07:53:16.659Z,0.47
2018-02-21T07:55:09.657Z,2.11
2018-02-21T07:56:09.684Z,2.89
2018-02-21T07:58:02.657Z,3.87
2018-02-21T07:59:02.705Z,4.14
2018-02-21T08:00:55.744Z,4.71
2018-02-21T08:01:55.730Z,5.15
2018-02-21T08:03:48.703Z,5.62
2018-02-21T08:04:48.752Z,5.82
2018-02-21T08:06:41.747Z,5.97
2018-02-21T08:07:41.781Z,6.09
2018-02-21T08:09:34.789Z,6.26
2018-02-21T08:10:34.809Z,6.30
2018-02-21T08:12:27.789Z,6.46
2018-02-21T08:13:27.841Z,6.24
2018-02-21T08:15:20.887Z,6.54
2018-02-21T08:16:20.872Z,6.51
2018-02-21T08:18:13.844Z,6.96
2018-02-21T08:19:13.902Z,7.15
2018-02-21T08:21:06.943Z,7.28
2018-02-21T08:22:06.928Z,7.66
2018-02-21T08:23:59.908Z,8.00
2018-02-21T08:24:59.967Z,8.33
2018-02-21T08:26:52.958Z,8.31
2018-02-21T08:27:52.989Z,8.34
2018-02-21T08:29:45.973Z,8.38
2018-02-21T08:30:46.022Z,8.24
2018-02-21T08:32:39.037Z,8.27
2018-02-21T08:33:39.080Z,8.13
2018-02-21T08:35:32.105Z,8.31
2018-02-21T08:36:32.154Z,8.12
2018-02-21T08:38:25.100Z,8.31
2018-02-21T08:39:25.152Z,8.06
2018-02-21T08:41:18.156Z,8.18
2018-02-21T08:42:18.186Z,8.51
2018-02-21T08:44:11.167Z,9.02
2018-02-21T08:45:11.232Z,9.22
2018-02-21T08:47:04.218Z,9.44
2018-02-21T08:48:04.254Z,9.22
2018-02-21T08:49:57.236Z,8.42
2018-02-21T08:50:57.287Z,7.97
2018-02-21T08:52:50.289Z,8.55
2018-02-21T08:53:50.322Z,8.41
2018-02-21T08:55:43.305Z,8.13
2018-02-21T08:56:43.366Z,8.44
2018-02-21T08:58:36.362Z,8.63
2018-02-21T08:59:36.402Z,8.76
2018-02-21T09:01:29.375Z,8.42
2018-02-21T09:02:29.436Z,8.58
2018-02-21T09:04:22.434Z,8.67
2018-02-21T09:05:22.468Z,8.55
2018-02-21T09:07:15.479Z,8.23
2018-02-21T09:08:15.503Z,8.44
2018-02-21T09:10:08.487Z,8.74
2018-02-21T09:11:08.536Z,9.16
2018-02-21T09:13:01.545Z,9.65
2018-02-21T09:14:01.572Z,9.54
2018-02-21T09:15:54.556Z,8.94
2018-02-21T09:16:54.608Z,8.87
2018-02-21T09:18:47.612Z,8.85
2018-02-21T09:19:47.645Z,8.84
2018-02-21T09:21:40.632Z,8.61
2018-02-21T09:22:40.682Z,8.46
2018-02-21T09:24:33.683Z,8.12
2018-02-21T09:25:33.722Z,7.69
2018-02-21T09:27:26.702Z,7.50
2018-02-21T09:28:26.763Z,6.95
2018-02-21T09:30:19.758Z,6.26
2018-02-21T09:31:19.793Z,5.87
2018-02-21T09:33:12.824Z,4.78
2018-02-21T09:34:12.828Z,4.74
2018-02-21T09:36:06.319Z,4.42
2018-02-21T09:37:06.368Z,4.26
2018-02-21T09:38:59.378Z,4.20
2018-02-21T09:39:59.399Z,4.05
2018-02-21T09:41:52.383Z,4.10
2018-02-21T09:42:52.431Z,4.08
2018-02-21T09:44:45.448Z,4.05
2018-02-21T09:45:45.488Z,4.02
2018-02-21T09:47:38.462Z,4.04
2018-02-21T09:48:38.518Z,4.14
2018-02-21T09:50:31.520Z,4.19
2018-02-21T09:51:31.554Z,4.10
2018-02-21T09:53:24.523Z,3.96
2018-02-21T09:54:24.579Z,3.96
2018-02-21T09:56:17.575Z,4.01
2018-02-21T09:57:17.612Z,4.02
2018-02-21T09:59:10.586Z,4.06
2018-02-21T10:00:10.661Z,4.16
2018-02-21T10:02:03.642Z,4.19
2018-02-21T10:03:03.674Z,4.14
2018-02-21T10:04:56.667Z,4.16
2018-02-21T10:05:56.704Z,4.14
2018-02-21T10:07:49.699Z,4.22
2018-02-21T10:08:49.742Z,4.19
2018-02-21T10:10:42.796Z,4.17
2018-02-21T10:11:42.785Z,4.16
2018-02-21T10:13:35.770Z,4.22
2018-02-21T10:14:35.820Z,4.20
2018-02-21T10:16:28.817Z,4.12
2018-02-21T10:17:28.845Z,4.19
2018-02-21T10:19:21.830Z,4.32
2018-02-21T10:20:21.879Z,4.34
2018-02-21T10:22:14.875Z,4.48
2018-02-21T10:23:14.908Z,4.42
2018-02-21T10:25:07.889Z,4.44
2018-02-21T10:26:07.940Z,4.48
2018-02-21T10:28:00.934Z,4.37
2018-02-21T10:29:00.970Z,4.45
2018-02-21T10:30:53.944Z,4.32
2018-02-21T10:31:53.999Z,4.34
2018-02-21T10:33:46.999Z,4.38
2018-02-21T10:34:47.036Z,4.58
2018-02-21T10:36:40.557Z,4.74
2018-02-21T10:37:40.573Z,4.74
2018-02-21T10:39:33.546Z,4.87
2018-02-21T10:40:33.603Z,4.90
2018-02-21T10:42:26.597Z,4.84
2018-02-21T10:43:26.633Z,4.87
2018-02-21T10:45:19.617Z,4.73
2018-02-21T10:46:19.663Z,4.78
2018-02-21T10:48:12.658Z,4.80
2018-02-21T10:49:12.694Z,4.86
2018-02-21T10:51:05.671Z,4.93
2018-02-21T10:52:05.723Z,4.89
2018-02-21T10:53:58.725Z,4.96
2018-02-21T10:54:58.761Z,4.87
2018-02-21T10:56:51.732Z,4.89
2018-02-21T10:57:51.787Z,4.84
2018-02-21T10:59:44.784Z,4.89
2018-02-21T11:00:44.817Z,4.92
2018-02-21T11:02:37.798Z,5.00
2018-02-21T11:03:37.845Z,4.99
2018-02-21T11:05:30.848Z,4.94
2018-02-21T11:06:30.884Z,4.94
2018-02-21T11:08:23.862Z,4.94
2018-02-21T11:09:23.914Z,5.08
2018-02-21T11:11:16.922Z,5.11
2018-02-21T11:12:16.957Z,5.12
2018-02-21T11:14:09.961Z,5.17
2018-02-21T11:15:09.986Z,5.05
2018-02-21T11:17:02.964Z,5.12
2018-02-21T11:18:03.065Z,5.14
2018-02-21T11:19:56.028Z,5.32
2018-02-21T11:20:56.049Z,5.30
2018-02-21T11:22:49.041Z,5.05
2018-02-21T11:23:49.082Z,5.12
2018-02-21T11:25:42.076Z,5.14
2018-02-21T11:26:42.120Z,5.20
2018-02-21T11:28:35.088Z,5.29
2018-02-21T11:29:35.145Z,5.30
2018-02-21T11:31:28.141Z,5.39
2018-02-21T11:32:28.175Z,5.54
2018-02-21T11:34:21.177Z,5.51
2018-02-21T11:35:21.251Z,5.48
2018-02-21T11:37:14.697Z,5.23
2018-02-21T11:38:14.750Z,5.23
2018-02-21T11:40:07.744Z,5.25
2018-02-21T11:41:07.778Z,5.33
2018-02-21T11:43:00.760Z,5.33
2018-02-21T11:44:00.832Z,5.30
2018-02-21T11:45:53.806Z,5.18
2018-02-21T11:46:53.841Z,5.21
2018-02-21T11:48:46.832Z,5.21
2018-02-21T11:49:46.882Z,5.23
2018-02-21T11:51:39.873Z,5.17
2018-02-21T11:52:39.906Z,5.29
2018-02-21T11:54:32.883Z,5.39
2018-02-21T11:55:32.938Z,5.48
2018-02-21T11:57:25.941Z,5.48
2018-02-21T11:58:25.975Z,5.47
2018-02-21T12:00:18.987Z,5.66
2018-02-21T12:01:19.002Z,5.69
2018-02-21T12:03:11.985Z,5.65
2018-02-21T12:04:12.035Z,5.64
2018-02-21T12:06:05.046Z,5.72
2018-02-21T12:07:05.066Z,5.72
2018-02-21T12:08:58.047Z,5.65
2018-02-21T12:09:58.122Z,5.69
2018-02-21T12:11:51.101Z,5.76
2018-02-21T12:12:51.156Z,5.79
2018-02-21T12:14:44.114Z,5.83
2018-02-21T12:15:44.164Z,6.07
2018-02-21T12:17:37.161Z,6.16
2018-02-21T12:18:37.193Z,6.05
2018-02-21T12:20:30.171Z,6.12
2018-02-21T12:21:30.226Z,6.05
2018-02-21T12:23:23.224Z,5.91
2018-02-21T12:24:23.261Z,5.84
2018-02-21T12:26:16.235Z,5.93
2018-02-21T12:27:16.292Z,5.83
2018-02-21T12:29:09.302Z,5.99
2018-02-21T12:30:09.324Z,5.94
2018-02-21T12:32:02.326Z,5.91
2018-02-21T12:33:02.380Z,6.11
2018-02-21T12:34:55.385Z,6.26
2018-02-21T12:35:55.413Z,6.12
2018-02-21T12:37:48.479Z,6.07
2018-02-21T12:38:48.500Z,6.19
2018-02-21T12:40:41.495Z,6.24
2018-02-21T12:41:41.532Z,6.28
2018-02-21T12:43:34.530Z,6.33
2018-02-21T12:44:34.562Z,6.30
2018-02-21T12:46:27.538Z,6.27
2018-02-21T12:47:27.595Z,6.20
2018-02-21T12:49:20.591Z,6.33
2018-02-21T12:50:20.628Z,6.28
2018-02-21T12:52:13.615Z,6.01
2018-02-21T12:53:13.690Z,6.26
2018-02-21T12:55:06.666Z,6.46
2018-02-21T12:56:06.700Z,6.46
2018-02-21T12:57:59.676Z,6.36
2018-02-21T12:58:59.733Z,6.27
2018-02-21T13:00:52.758Z,6.27
2018-02-21T13:01:52.763Z,6.09
2018-02-21T13:03:45.747Z,6.01
2018-02-21T13:04:45.807Z,5.89
2018-02-21T13:06:38.803Z,5.94
2018-02-21T13:07:38.888Z,5.99
2018-02-21T13:09:31.846Z,6.09
2018-02-21T13:10:31.878Z,6.02
2018-02-21T13:12:24.857Z,6.16
2018-02-21T13:13:24.912Z,6.04
2018-02-21T13:15:17.915Z,5.86
2018-02-21T13:16:17.945Z,5.69
2018-02-21T13:18:10.933Z,5.76
2018-02-21T13:19:10.979Z,5.68
2018-02-21T13:21:03.979Z,5.72
2018-02-21T13:22:04.024Z,5.83
2018-02-21T13:23:57.003Z,5.64
2018-02-21T13:24:57.061Z,5.64
2018-02-21T13:26:50.060Z,5.65
2018-02-21T13:27:50.095Z,5.64
2018-02-21T13:29:43.074Z,5.69
2018-02-21T13:30:43.123Z,5.68
2018-02-21T13:32:36.125Z,5.66
2018-02-21T13:33:36.158Z,5.66
2018-02-21T13:35:29.132Z,5.76
2018-02-21T13:36:29.192Z,5.76
2018-02-21T13:38:22.218Z,5.66
2018-02-21T13:39:22.238Z,5.66
2018-02-21T13:41:15.230Z,5.64
2018-02-21T13:42:15.253Z,5.66
2018-02-21T13:44:08.238Z,5.62
2018-02-21T13:45:08.287Z,5.64
2018-02-21T13:47:01.282Z,5.71
2018-02-21T13:48:01.319Z,5.79
2018-02-21T13:49:54.293Z,5.68
2018-02-21T13:50:54.351Z,5.80
2018-02-21T13:52:47.351Z,5.66
2018-02-21T13:53:47.384Z,5.50
2018-02-21T13:55:40.366Z,5.44
2018-02-21T13:56:40.415Z,5.54
2018-02-21T13:58:33.415Z,5.72
2018-02-21T13:59:33.446Z,5.76
2018-02-21T14:01:26.421Z,5.69
2018-02-21T14:02:26.546Z,5.80
2018-02-21T14:04:19.478Z,5.69
2018-02-21T14:05:19.508Z,5.75
2018-02-21T14:07:12.491Z,5.84
2018-02-21T14:08:12.546Z,5.66
2018-02-21T14:10:05.543Z,5.71
2018-02-21T14:11:05.582Z,5.65
2018-02-21T14:12:58.600Z,5.87
2018-02-21T14:13:58.622Z,5.90
2018-02-21T14:15:51.596Z,5.80
2018-02-21T14:16:51.652Z,5.72
2018-02-21T14:18:44.656Z,5.73
2018-02-21T14:19:44.686Z,5.64
2018-02-21T14:21:37.663Z,5.64
2018-02-21T14:22:37.717Z,5.72
2018-02-21T14:24:30.730Z,5.62
2018-02-21T14:25:30.765Z,5.62
2018-02-21T14:27:23.749Z,5.61
2018-02-21T14:28:23.797Z,5.59
2018-02-21T14:30:16.795Z,5.64
2018-02-21T14:31:16.828Z,5.59
2018-02-21T14:33:09.811Z,5.53
2018-02-21T14:34:09.861Z,5.50
2018-02-21T14:36:02.859Z,5.54
2018-02-21T14:37:02.895Z,5.54
2018-02-21T14:38:55.892Z,5.56
2018-02-21T14:39:55.926Z,5.51
2018-02-21T14:41:48.915Z,5.59
2018-02-21T14:42:48.972Z,5.54
2018-02-21T14:44:41.970Z,5.61
2018-02-21T14:45:42.003Z,5.56
2018-02-21T14:47:34.987Z,5.62
2018-02-21T14:48:35.039Z,5.61
2018-02-21T14:50:28.037Z,5.53
2018-02-21T14:51:28.072Z,5.54
2018-02-21T14:53:21.051Z,5.46
2018-02-21T14:54:21.102Z,5.39
2018-02-21T14:56:14.113Z,5.36
2018-02-21T14:57:14.131Z,5.29
2018-02-21T14:59:07.110Z,5.23
2018-02-21T15:00:07.164Z,5.21
2018-02-21T15:02:00.166Z,5.14
2018-02-21T15:04:39.862Z,5.15
2018-02-21T15:05:39.890Z,5.14
2018-02-21T15:07:32.997Z,5.20
2018-02-21T15:08:33.098Z,5.17
2018-02-21T15:10:29.067Z,5.23
2018-02-21T15:11:30.076Z,5.25
2018-02-21T15:13:33.666Z,5.12
2018-02-21T15:14:33.699Z,5.12
2018-02-21T15:16:38.052Z,5.02
2018-02-21T15:17:38.020Z,5.00
2018-02-21T15:19:31.019Z,4.97
2018-02-21T15:20:31.053Z,5.04
2018-02-21T15:22:24.092Z,5.00
2018-02-21T15:23:24.154Z,4.92
2018-02-21T15:25:17.098Z,4.97
2018-02-21T15:26:17.148Z,4.94
2018-02-21T15:28:10.158Z,5.02
2018-02-21T15:29:10.241Z,4.99
2018-02-21T15:31:03.158Z,5.00
2018-02-21T15:32:03.218Z,4.99
2018-02-21T15:33:56.230Z,4.96
2018-02-21T15:34:56.267Z,5.05
2018-02-21T15:36:49.250Z,4.94
2018-02-21T15:37:49.297Z,4.90
2018-02-21T15:39:42.399Z,4.92
2018-02-21T15:40:42.374Z,4.92
2018-02-21T15:42:35.613Z,4.92
2018-02-21T15:43:35.462Z,4.75
2018-02-21T15:45:28.436Z,4.77
2018-02-21T15:46:28.469Z,4.73
2018-02-21T15:48:21.477Z,4.75
2018-02-21T15:49:21.514Z,4.80
2018-02-21T15:51:14.481Z,4.87
2018-02-21T15:52:14.537Z,4.78
2018-02-21T15:54:07.562Z,4.78
2018-02-21T15:55:07.568Z,4.74
2018-02-21T15:57:00.605Z,4.73
2018-02-21T15:58:02.576Z,4.78
2018-02-21T15:59:53.615Z,4.75
2018-02-21T16:00:53.678Z,4.60
2018-02-21T16:02:46.647Z,4.63
2018-02-21T16:03:46.702Z,4.60
2018-02-21T16:05:39.768Z,4.62
2018-02-21T16:06:39.950Z,4.62
2018-02-21T16:08:32.769Z,4.60
2018-02-21T16:09:32.785Z,4.56
2018-02-21T16:11:25.772Z,4.58
2018-02-21T16:12:25.827Z,4.56
2018-02-21T16:14:18.839Z,4.48
2018-02-21T16:15:19.835Z,4.48
2018-02-21T16:18:29.299Z,4.49
2018-02-21T16:19:29.382Z,4.41
2018-02-21T16:21:22.380Z,4.45
2018-02-21T16:22:22.385Z,4.44
2018-02-21T16:24:15.432Z,4.38
2018-02-21T16:25:15.434Z,4.37
2018-02-21T16:27:08.455Z,4.34
2018-02-21T16:28:08.478Z,4.40
2018-02-21T16:30:01.466Z,4.26
2018-02-21T16:31:01.531Z,4.31
2018-02-21T16:32:54.477Z,4.28
2018-02-21T16:33:54.540Z,4.28
2018-02-21T16:35:47.541Z,4.28
2018-02-21T16:36:47.776Z,4.14
2018-02-21T16:38:40.563Z,4.14
2018-02-21T16:39:40.607Z,4.19
2018-02-21T16:41:33.644Z,4.17
2018-02-21T16:42:33.632Z,4.06
2018-02-21T16:44:26.626Z,4.17
2018-02-21T16:45:26.664Z,4.14
2018-02-21T16:47:19.686Z,4.06
2018-02-21T16:48:19.765Z,4.08
2018-02-21T16:50:12.801Z,4.01
2018-02-21T16:51:12.781Z,4.01
2018-02-21T16:53:05.733Z,3.98
2018-02-21T16:54:05.789Z,3.91
2018-02-21T16:55:58.815Z,3.87
2018-02-21T16:56:58.829Z,3.87
2018-02-21T16:58:51.835Z,3.77
2018-02-21T16:59:51.861Z,3.81
2018-02-21T17:01:44.859Z,3.80
2018-02-21T17:02:44.899Z,3.80
2018-02-21T17:04:37.869Z,3.76
2018-02-21T17:05:37.923Z,3.78
2018-02-21T17:07:30.919Z,3.74
2018-02-21T17:08:30.955Z,3.74
2018-02-21T17:10:23.937Z,3.70
2018-02-21T17:11:25.276Z,3.69
2018-02-21T17:13:16.997Z,3.66
2018-02-21T17:14:17.021Z,3.69
2018-02-21T17:16:10.026Z,3.53
2018-02-21T17:17:10.051Z,3.63
2018-02-21T17:19:03.044Z,3.48
2018-02-21T17:20:03.078Z,3.53
2018-02-21T17:21:56.086Z,3.53
2018-02-21T17:22:56.129Z,3.44
2018-02-21T17:24:49.139Z,3.42
2018-02-21T17:25:49.143Z,3.42
2018-02-21T17:27:42.166Z,3.51
2018-02-21T17:28:42.186Z,3.41
2018-02-21T17:30:35.170Z,3.31
2018-02-21T17:31:35.234Z,3.36
2018-02-21T17:33:28.226Z,3.14
2018-02-21T17:34:28.253Z,3.21
2018-02-21T17:36:21.227Z,3.19
2018-02-21T17:37:21.282Z,3.13
2018-02-21T17:39:14.301Z,3.10
2018-02-21T17:40:14.321Z,3.10
2018-02-21T17:42:07.302Z,3.05
2018-02-21T17:43:07.361Z,3.03
2018-02-21T17:45:00.889Z,2.90
2018-02-21T17:46:00.390Z,2.90
2018-02-21T17:47:53.398Z,2.95
2018-02-21T17:48:53.421Z,2.83
2018-02-21T17:50:46.417Z,2.85
2018-02-21T17:51:46.455Z,2.87
2018-02-21T17:53:39.457Z,2.80
2018-02-21T17:54:39.481Z,2.82
2018-02-21T17:56:32.457Z,2.67
2018-02-21T17:57:32.507Z,2.72
2018-02-21T17:59:25.500Z,2.67
2018-02-21T18:00:25.534Z,2.65
2018-02-21T18:02:18.514Z,2.64
2018-02-21T18:03:18.581Z,2.56
2018-02-21T18:05:11.559Z,2.68
2018-02-21T18:06:12.590Z,2.54
2018-02-21T18:08:16.190Z,2.67
2018-02-21T18:09:16.248Z,2.60
2018-02-21T18:11:09.238Z,2.68
2018-02-21T18:12:09.279Z,2.57
2018-02-21T18:14:02.237Z,2.53
2018-02-21T18:15:02.293Z,2.64
2018-02-21T18:16:55.294Z,2.51
2018-02-21T18:17:55.328Z,2.47
2018-02-21T18:19:48.323Z,2.50
2018-02-21T18:20:48.354Z,2.49
2018-02-21T18:22:41.353Z,2.47
2018-02-21T18:23:41.386Z,2.36
2018-02-21T18:25:34.380Z,2.39
2018-02-21T18:26:34.409Z,2.39
2018-02-21T18:28:27.380Z,2.36
2018-02-21T18:29:27.433Z,2.35
2018-02-21T18:31:20.468Z,2.42
2018-02-21T18:32:20.459Z,2.39
2018-02-21T18:34:13.432Z,2.31
2018-02-21T18:35:13.485Z,2.32
2018-02-21T18:37:06.475Z,2.39
2018-02-21T18:38:06.511Z,2.36
2018-02-21T18:39:59.500Z,2.33
2018-02-21T18:40:59.540Z,2.25
2018-02-21T18:42:52.534Z,2.26
2018-02-21T18:43:52.571Z,2.25
2018-02-21T18:45:45.546Z,2.24
2018-02-21T18:46:45.597Z,2.20
2018-02-21T18:48:38.626Z,2.17
2018-02-21T18:49:38.622Z,2.13
2018-02-21T18:51:31.594Z,2.17
2018-02-21T18:52:31.655Z,2.14
2018-02-21T18:54:24.643Z,2.14
2018-02-21T18:55:24.675Z,2.07
2018-02-21T18:57:17.671Z,2.06
2018-02-21T18:58:17.815Z,2.18
2018-02-21T19:00:10.671Z,2.06
2018-02-21T19:01:10.727Z,2.04